F\v Tenia — FPMH — position and weather

sailwx.info

Track history (hours):
 
Tides and Currents Weather Stations Pressure Air Temp Water Temp Dewpoint Dewpoint Depression Visibility Wind Speed Wind Dir Waves Ship Positions

F\v Tenia

Last reported at 2016-Aug-24 22:32 UTC. Time now 2016-Aug-24 23:14 UTC.
Position N 47°27' W 005°06'.

Length 22 m; draft 4 m.

Type: Fishing. MMSI: 227575000.

Date/timePositionNaut miles runAvg speedWind from/ knotsBaromVisibWave heightAir tempDewpointWater temp
2016-Aug-24 22:32N 47°27' W 005°06'6 5.8
2016-Aug-24 21:28N 47°21' W 005°05'4 0.3
2016-Aug-24 11:04N 47°18' W 005°03'0 0.1
2016-Aug-24 10:33N 47°18' W 005°03'0 0.1
2016-Aug-24 09:29N 47°18' W 005°04'1 1.3
2016-Aug-24 08:32N 47°17' W 005°03'1 1.2
2016-Aug-24 07:32N 47°18' W 005°02'2 2.0
2016-Aug-24 06:33N 47°16' W 005°01'2 0.9
2016-Aug-24 04:28N 47°17' W 005°00'2 2.2
2016-Aug-24 03:27N 47°18' W 004°57'4 4.5
2016-Aug-24 02:33N 47°18' W 005°03'4 4.5
2016-Aug-24 01:33N 47°17' W 004°57'9 7.9
2016-Aug-24 00:26N 47°11' W 004°47'9 8.4
2016-Aug-23 23:18N 47°06' W 004°36'6 8.4
2016-Aug-23 22:33N 47°02' W 004°28'7 6.9
2016-Aug-23 21:30N 46°58' W 004°20'1 1.2
2016-Aug-23 20:30N 46°58' W 004°18'1 1.3
2016-Aug-23 19:33N 46°58' W 004°16'2 1.2
2016-Aug-23 17:33N 46°58' W 004°13'7 6.8
2016-Aug-23 16:33N 46°58' W 004°22'2 2.0
2016-Aug-23 15:31N 46°58' W 004°25'4 3.4
2016-Aug-23 14:27N 47°01' W 004°24'3 3.7
2016-Aug-23 13:34N 47°03' W 004°19'5 5.3
2016-Aug-23 12:33N 46°58' W 004°15'5 4.7
2016-Aug-23 11:33N 46°54' W 004°20'8 8.5
2016-Aug-23 10:34N 46°46' W 004°18'8 7.9
2016-Aug-23 09:33N 46°38' W 004°17'8 7.6
2016-Aug-23 08:34N 46°30' W 004°15'8 8.1
2016-Aug-23 07:33N 46°22' W 004°14'6 6.3
2016-Aug-23 06:33N 46°16' W 004°13'9 8.5
2016-Aug-23 05:33N 46°08' W 004°11'  
Track history (hours):
 
Tides and Currents Weather Stations Pressure Air Temp Water Temp Dewpoint Dewpoint Depression Visibility Wind Speed Wind Dir Waves Ship Positions

F\v Tenia

Last reported at 2016-Aug-24 22:32 UTC. Time now 2016-Aug-24 23:14 UTC.
Position N 47°27' W 005°06'.

Length 22 m; draft 4 m.

Type: Fishing. MMSI: 227575000.

Date/timePositionNaut miles runAvg speedWind from/ knotsBaromVisibWave heightAir tempDewpointWater temp
2016-Aug-24 22:32N 47°27' W 005°06'6 5.8
2016-Aug-24 21:28N 47°21' W 005°05'4 0.3
2016-Aug-24 11:04N 47°18' W 005°03'0 0.1
2016-Aug-24 10:33N 47°18' W 005°03'0 0.1
2016-Aug-24 09:29N 47°18' W 005°04'1 1.3
2016-Aug-24 08:32N 47°17' W 005°03'1 1.2
2016-Aug-24 07:32N 47°18' W 005°02'2 2.0
2016-Aug-24 06:33N 47°16' W 005°01'2 0.9
2016-Aug-24 04:28N 47°17' W 005°00'2 2.2
2016-Aug-24 03:27N 47°18' W 004°57'4 4.5
2016-Aug-24 02:33N 47°18' W 005°03'4 4.5
2016-Aug-24 01:33N 47°17' W 004°57'9 7.9
2016-Aug-24 00:26N 47°11' W 004°47'9 8.4
2016-Aug-23 23:18N 47°06' W 004°36'6 8.4
2016-Aug-23 22:33N 47°02' W 004°28'7 6.9
2016-Aug-23 21:30N 46°58' W 004°20'1 1.2
2016-Aug-23 20:30N 46°58' W 004°18'1 1.3
2016-Aug-23 19:33N 46°58' W 004°16'2 1.2
2016-Aug-23 17:33N 46°58' W 004°13'7 6.8
2016-Aug-23 16:33N 46°58' W 004°22'2 2.0
2016-Aug-23 15:31N 46°58' W 004°25'4 3.4
2016-Aug-23 14:27N 47°01' W 004°24'3 3.7
2016-Aug-23 13:34N 47°03' W 004°19'5 5.3
2016-Aug-23 12:33N 46°58' W 004°15'5 4.7
2016-Aug-23 11:33N 46°54' W 004°20'8 8.5
2016-Aug-23 10:34N 46°46' W 004°18'8 7.9
2016-Aug-23 09:33N 46°38' W 004°17'8 7.6
2016-Aug-23 08:34N 46°30' W 004°15'8 8.1
2016-Aug-23 07:33N 46°22' W 004°14'6 6.3
2016-Aug-23 06:33N 46°16' W 004°13'9 8.5
2016-Aug-23 05:33N 46°08' W 004°11'  

Dump ship's entire track history